Henrys Chapel, Texas
Current Conditions -  °F | °C
As of 10:35 AM on Saturday 22 Nov 2014 (Local Time) from KJSO Reporting Station
Clear Clear  
Wind Chill: 66°   Ceiling: Unl
Heat Index: 66°   Visibility: 10mi
Dew Point: 57°   Wind: 8mph
Humidity: 73%   Direction: 150°SSE
Pressure: 30.1"   Gusts: NA
Location:  32.0774°N, 95.1103°W
Report Text: KJSO 221635Z AUTO 15007KT 10SM CLR 18/13 A3010 RMK AO2 LTG DSNT SW THRU NW T01870138
Loading
Personal Weather Stations






























Interactive Weather Map New forecast layout! Learn more

10-Day Weather Forecast

Advertisements
Track Severe Weather on mobile